W. A. Kernan — WDD4377 — position and weather

sailwx.info

Track history (hours):
 
Tides and Currents Weather Stations Pressure Air Temp Water Temp Dewpoint Dewpoint Depression Visibility Wind Speed Wind Dir Waves Ship Positions

W. A. Kernan

Owner: American Commercial Lines LLC, Jeffersonville, IN. More information available from US FCC via Universal Licensing System and Coast Guard Vessel Documentation Center.

Last reported at 2015-May-18 22:33 UTC. Time now 2015-May-25 23:43 UTC.
Position N 38°57' W 084°51'.

Length 45 m; draft 2.9 m.

MMSI: 367143920.

Date/timePositionNaut miles runAvg speedWind from/ knotsBaromVisibWave heightAir tempDewpointWater temp
2015-May-18 22:33N 38°57' W 084°51'10 5.0
2015-May-18 20:33N 39°07' W 084°48'5 4.6
2015-May-18 19:33N 39°07' W 084°42'1 1.3
2015-May-18 18:32N 39°06' W 084°41'0 0.0
2015-May-18 17:32N 39°06' W 084°41'0 0.0
2015-May-18 16:33N 39°06' W 084°41'0 0.0
2015-May-18 15:33N 39°06' W 084°41'0 0.1
2015-May-18 14:32N 39°06' W 084°41'0 0.0
2015-May-18 13:33N 39°06' W 084°41'3 3.0
2015-May-18 12:33N 39°08' W 084°43'6 5.2
2015-May-18 11:26N 39°06' W 084°50'5 4.4
2015-May-18 10:25N 39°01' W 084°52'5 5.5
2015-May-18 09:33N 38°57' W 084°51'  
Track history (hours):
 
Tides and Currents Weather Stations Pressure Air Temp Water Temp Dewpoint Dewpoint Depression Visibility Wind Speed Wind Dir Waves Ship Positions

W. A. Kernan

Owner: American Commercial Lines LLC, Jeffersonville, IN. More information available from US FCC via Universal Licensing System and Coast Guard Vessel Documentation Center.

Last reported at 2015-May-18 22:33 UTC. Time now 2015-May-25 23:43 UTC.
Position N 38°57' W 084°51'.

Length 45 m; draft 2.9 m.

MMSI: 367143920.

Date/timePositionNaut miles runAvg speedWind from/ knotsBaromVisibWave heightAir tempDewpointWater temp
2015-May-18 22:33N 38°57' W 084°51'10 5.0
2015-May-18 20:33N 39°07' W 084°48'5 4.6
2015-May-18 19:33N 39°07' W 084°42'1 1.3
2015-May-18 18:32N 39°06' W 084°41'0 0.0
2015-May-18 17:32N 39°06' W 084°41'0 0.0
2015-May-18 16:33N 39°06' W 084°41'0 0.0
2015-May-18 15:33N 39°06' W 084°41'0 0.1
2015-May-18 14:32N 39°06' W 084°41'0 0.0
2015-May-18 13:33N 39°06' W 084°41'3 3.0
2015-May-18 12:33N 39°08' W 084°43'6 5.2
2015-May-18 11:26N 39°06' W 084°50'5 4.4
2015-May-18 10:25N 39°01' W 084°52'5 5.5
2015-May-18 09:33N 38°57' W 084°51'  

Dump ship's entire track history